sensor_id;sensor_type;location;lat;lon;timestamp;P1;durP1;ratioP1;P2;durP2;ratioP2
63018;SDS011;49105;46.046;10.760;2022-07-06T00:01:39;1.70;;;1.70;;
63018;SDS011;49105;46.046;10.760;2022-07-06T00:04:05;1.70;;;1.70;;
63018;SDS011;49105;46.046;10.760;2022-07-06T00:06:31;1.63;;;1.63;;
63018;SDS011;49105;46.046;10.760;2022-07-06T00:08:57;1.50;;;1.50;;
63018;SDS011;49105;46.046;10.760;2022-07-06T00:11:23;1.50;;;1.50;;
63018;SDS011;49105;46.046;10.760;2022-07-06T00:13:49;1.73;;;1.73;;
63018;SDS011;49105;46.046;10.760;2022-07-06T00:16:15;1.60;;;1.60;;
63018;SDS011;49105;46.046;10.760;2022-07-06T00:18:41;1.58;;;1.58;;
63018;SDS011;49105;46.046;10.760;2022-07-06T00:21:06;2.65;;;1.85;;
63018;SDS011;49105;46.046;10.760;2022-07-06T00:23:31;1.70;;;1.70;;
63018;SDS011;49105;46.046;10.760;2022-07-06T00:25:57;1.50;;;1.50;;
63018;SDS011;49105;46.046;10.760;2022-07-06T00:28:23;1.60;;;1.60;;
63018;SDS011;49105;46.046;10.760;2022-07-06T00:30:48;1.48;;;1.48;;
63018;SDS011;49105;46.046;10.760;2022-07-06T00:33:14;1.50;;;1.50;;
63018;SDS011;49105;46.046;10.760;2022-07-06T00:35:39;1.50;;;1.50;;
63018;SDS011;49105;46.046;10.760;2022-07-06T00:38:05;1.60;;;1.60;;
63018;SDS011;49105;46.046;10.760;2022-07-06T00:40:31;1.52;;;1.52;;
63018;SDS011;49105;46.046;10.760;2022-07-06T00:42:56;1.50;;;1.50;;
63018;SDS011;49105;46.046;10.760;2022-07-06T00:45:22;1.67;;;1.67;;
63018;SDS011;49105;46.046;10.760;2022-07-06T00:47:48;1.30;;;1.30;;
63018;SDS011;49105;46.046;10.760;2022-07-06T00:50:14;1.40;;;1.40;;
63018;SDS011;49105;46.046;10.760;2022-07-06T00:58:07;1.40;;;1.40;;
63018;SDS011;49105;46.046;10.760;2022-07-06T01:00:33;1.60;;;1.60;;
63018;SDS011;49105;46.046;10.760;2022-07-06T01:03:00;1.80;;;1.77;;
63018;SDS011;49105;46.046;10.760;2022-07-06T01:05:26;1.50;;;1.50;;
63018;SDS011;49105;46.046;10.760;2022-07-06T01:07:52;1.40;;;1.40;;
63018;SDS011;49105;46.046;10.760;2022-07-06T01:10:19;1.58;;;1.58;;
63018;SDS011;49105;46.046;10.760;2022-07-06T01:12:47;1.50;;;1.50;;
63018;SDS011;49105;46.046;10.760;2022-07-06T01:15:17;1.70;;;1.70;;
63018;SDS011;49105;46.046;10.760;2022-07-06T01:17:47;1.77;;;1.77;;
63018;SDS011;49105;46.046;10.760;2022-07-06T01:20:14;1.50;;;1.50;;
63018;SDS011;49105;46.046;10.760;2022-07-06T01:22:47;1.40;;;1.40;;
63018;SDS011;49105;46.046;10.760;2022-07-06T01:25:14;2.35;;;2.13;;
63018;SDS011;49105;46.046;10.760;2022-07-06T01:27:40;1.70;;;1.70;;
63018;SDS011;49105;46.046;10.760;2022-07-06T01:30:08;1.60;;;1.60;;
63018;SDS011;49105;46.046;10.760;2022-07-06T01:32:38;1.50;;;1.50;;
63018;SDS011;49105;46.046;10.760;2022-07-06T01:35:05;1.60;;;1.60;;
63018;SDS011;49105;46.046;10.760;2022-07-06T01:37:31;1.75;;;1.75;;
63018;SDS011;49105;46.046;10.760;2022-07-06T01:39:58;1.60;;;1.60;;
63018;SDS011;49105;46.046;10.760;2022-07-06T01:42:25;1.63;;;1.63;;
63018;SDS011;49105;46.046;10.760;2022-07-06T01:44:50;1.70;;;1.70;;
63018;SDS011;49105;46.046;10.760;2022-07-06T01:47:16;1.60;;;1.60;;
63018;SDS011;49105;46.046;10.760;2022-07-06T01:49:41;1.50;;;1.50;;
63018;SDS011;49105;46.046;10.760;2022-07-06T01:52:07;1.60;;;1.60;;
63018;SDS011;49105;46.046;10.760;2022-07-06T01:54:32;1.50;;;1.50;;
63018;SDS011;49105;46.046;10.760;2022-07-06T01:56:58;1.50;;;1.50;;
63018;SDS011;49105;46.046;10.760;2022-07-06T01:59:23;1.60;;;1.60;;
63018;SDS011;49105;46.046;10.760;2022-07-06T02:01:49;1.60;;;1.60;;
63018;SDS011;49105;46.046;10.760;2022-07-06T02:04:14;1.50;;;1.50;;
63018;SDS011;49105;46.046;10.760;2022-07-06T02:06:40;1.50;;;1.50;;
63018;SDS011;49105;46.046;10.760;2022-07-06T02:09:05;1.50;;;1.50;;
63018;SDS011;49105;46.046;10.760;2022-07-06T02:11:31;1.50;;;1.50;;
63018;SDS011;49105;46.046;10.760;2022-07-06T02:13:56;1.60;;;1.60;;
63018;SDS011;49105;46.046;10.760;2022-07-06T02:16:22;1.50;;;1.50;;
63018;SDS011;49105;46.046;10.760;2022-07-06T02:18:47;1.70;;;1.70;;
63018;SDS011;49105;46.046;10.760;2022-07-06T02:21:13;1.40;;;1.40;;
63018;SDS011;49105;46.046;10.760;2022-07-06T02:23:38;1.58;;;1.58;;
63018;SDS011;49105;46.046;10.760;2022-07-06T02:26:04;1.67;;;1.67;;
63018;SDS011;49105;46.046;10.760;2022-07-06T02:28:29;1.63;;;1.63;;
63018;SDS011;49105;46.046;10.760;2022-07-06T02:30:55;1.50;;;1.50;;
63018;SDS011;49105;46.046;10.760;2022-07-06T02:33:20;1.60;;;1.60;;
63018;SDS011;49105;46.046;10.760;2022-07-06T02:35:46;1.70;;;1.70;;
63018;SDS011;49105;46.046;10.760;2022-07-06T02:38:11;1.60;;;1.60;;
63018;SDS011;49105;46.046;10.760;2022-07-06T02:40:37;1.55;;;1.55;;
63018;SDS011;49105;46.046;10.760;2022-07-06T02:43:03;1.70;;;1.70;;
63018;SDS011;49105;46.046;10.760;2022-07-06T02:45:29;1.50;;;1.50;;
63018;SDS011;49105;46.046;10.760;2022-07-06T02:47:54;1.40;;;1.40;;
63018;SDS011;49105;46.046;10.760;2022-07-06T02:50:21;1.70;;;1.70;;
63018;SDS011;49105;46.046;10.760;2022-07-06T02:52:46;1.60;;;1.60;;
63018;SDS011;49105;46.046;10.760;2022-07-06T02:55:12;1.42;;;1.42;;
63018;SDS011;49105;46.046;10.760;2022-07-06T02:57:37;1.42;;;1.42;;
63018;SDS011;49105;46.046;10.760;2022-07-06T03:00:03;1.63;;;1.63;;
63018;SDS011;49105;46.046;10.760;2022-07-06T03:02:29;1.30;;;1.30;;
63018;SDS011;49105;46.046;10.760;2022-07-06T03:04:55;1.40;;;1.40;;
63018;SDS011;49105;46.046;10.760;2022-07-06T03:07:21;1.80;;;1.80;;
63018;SDS011;49105;46.046;10.760;2022-07-06T03:09:47;1.50;;;1.50;;
63018;SDS011;49105;46.046;10.760;2022-07-06T03:12:12;2.33;;;2.08;;
63018;SDS011;49105;46.046;10.760;2022-07-06T03:14:38;1.80;;;1.80;;
63018;SDS011;49105;46.046;10.760;2022-07-06T03:17:03;1.92;;;1.92;;
63018;SDS011;49105;46.046;10.760;2022-07-06T03:19:29;1.70;;;1.70;;
63018;SDS011;49105;46.046;10.760;2022-07-06T03:21:54;1.70;;;1.70;;
63018;SDS011;49105;46.046;10.760;2022-07-06T03:24:20;1.70;;;1.70;;
63018;SDS011;49105;46.046;10.760;2022-07-06T03:26:45;1.60;;;1.60;;
63018;SDS011;49105;46.046;10.760;2022-07-06T03:29:10;1.40;;;1.40;;
63018;SDS011;49105;46.046;10.760;2022-07-06T03:31:36;1.23;;;1.23;;
63018;SDS011;49105;46.046;10.760;2022-07-06T03:34:01;1.30;;;1.30;;
63018;SDS011;49105;46.046;10.760;2022-07-06T03:36:27;1.23;;;1.23;;
63018;SDS011;49105;46.046;10.760;2022-07-06T03:38:52;1.30;;;1.30;;
63018;SDS011;49105;46.046;10.760;2022-07-06T03:41:18;1.20;;;1.20;;
63018;SDS011;49105;46.046;10.760;2022-07-06T03:43:43;1.30;;;1.30;;
63018;SDS011;49105;46.046;10.760;2022-07-06T03:46:09;1.40;;;1.40;;
63018;SDS011;49105;46.046;10.760;2022-07-06T03:48:34;1.30;;;1.30;;
63018;SDS011;49105;46.046;10.760;2022-07-06T03:51:00;1.30;;;1.30;;
63018;SDS011;49105;46.046;10.760;2022-07-06T03:53:25;1.20;;;1.20;;
63018;SDS011;49105;46.046;10.760;2022-07-06T03:55:51;1.30;;;1.30;;
63018;SDS011;49105;46.046;10.760;2022-07-06T03:58:35;1.05;;;1.05;;
63018;SDS011;49105;46.046;10.760;2022-07-06T04:01:00;1.15;;;1.15;;
63018;SDS011;49105;46.046;10.760;2022-07-06T04:03:26;1.15;;;1.15;;
63018;SDS011;49105;46.046;10.760;2022-07-06T04:05:52;1.10;;;1.10;;
63018;SDS011;49105;46.046;10.760;2022-07-06T04:08:18;1.23;;;1.23;;
63018;SDS011;49105;46.046;10.760;2022-07-06T04:10:44;1.17;;;1.17;;
63018;SDS011;49105;46.046;10.760;2022-07-06T04:13:10;1.23;;;1.23;;
63018;SDS011;49105;46.046;10.760;2022-07-06T04:15:35;1.40;;;1.40;;
63018;SDS011;49105;46.046;10.760;2022-07-06T04:18:01;1.20;;;1.20;;
63018;SDS011;49105;46.046;10.760;2022-07-06T04:20:26;1.20;;;1.20;;
63018;SDS011;49105;46.046;10.760;2022-07-06T04:22:52;1.35;;;1.35;;
63018;SDS011;49105;46.046;10.760;2022-07-06T04:25:17;1.25;;;1.25;;
63018;SDS011;49105;46.046;10.760;2022-07-06T04:27:43;1.30;;;1.30;;
63018;SDS011;49105;46.046;10.760;2022-07-06T04:30:08;1.45;;;1.45;;
63018;SDS011;49105;46.046;10.760;2022-07-06T04:32:35;1.13;;;1.13;;
63018;SDS011;49105;46.046;10.760;2022-07-06T04:35:01;1.10;;;1.10;;
63018;SDS011;49105;46.046;10.760;2022-07-06T04:37:27;1.40;;;1.40;;
63018;SDS011;49105;46.046;10.760;2022-07-06T04:39:53;1.38;;;1.38;;
63018;SDS011;49105;46.046;10.760;2022-07-06T04:42:18;1.30;;;1.30;;
63018;SDS011;49105;46.046;10.760;2022-07-06T04:44:44;1.40;;;1.40;;
63018;SDS011;49105;46.046;10.760;2022-07-06T04:47:10;1.40;;;1.40;;
63018;SDS011;49105;46.046;10.760;2022-07-06T04:49:36;1.33;;;1.33;;
63018;SDS011;49105;46.046;10.760;2022-07-06T04:52:02;1.30;;;1.30;;
63018;SDS011;49105;46.046;10.760;2022-07-06T04:54:28;1.63;;;1.63;;
63018;SDS011;49105;46.046;10.760;2022-07-06T04:56:53;1.40;;;1.40;;
63018;SDS011;49105;46.046;10.760;2022-07-06T04:59:19;1.20;;;1.20;;
63018;SDS011;49105;46.046;10.760;2022-07-06T05:01:44;1.20;;;1.20;;
63018;SDS011;49105;46.046;10.760;2022-07-06T05:04:10;1.30;;;1.30;;
63018;SDS011;49105;46.046;10.760;2022-07-06T05:06:35;1.95;;;1.85;;
63018;SDS011;49105;46.046;10.760;2022-07-06T05:09:00;1.20;;;1.20;;
63018;SDS011;49105;46.046;10.760;2022-07-06T05:11:26;1.38;;;1.38;;
63018;SDS011;49105;46.046;10.760;2022-07-06T05:13:52;1.13;;;1.13;;
63018;SDS011;49105;46.046;10.760;2022-07-06T05:16:18;1.20;;;1.20;;
63018;SDS011;49105;46.046;10.760;2022-07-06T05:18:43;1.10;;;1.10;;
63018;SDS011;49105;46.046;10.760;2022-07-06T05:21:09;1.33;;;1.33;;
63018;SDS011;49105;46.046;10.760;2022-07-06T05:23:34;2.15;;;2.05;;
63018;SDS011;49105;46.046;10.760;2022-07-06T05:26:00;1.48;;;1.48;;
63018;SDS011;49105;46.046;10.760;2022-07-06T05:28:25;1.30;;;1.30;;
63018;SDS011;49105;46.046;10.760;2022-07-06T05:30:51;1.30;;;1.30;;
63018;SDS011;49105;46.046;10.760;2022-07-06T05:33:16;1.20;;;1.20;;
63018;SDS011;49105;46.046;10.760;2022-07-06T05:35:42;1.30;;;1.30;;
63018;SDS011;49105;46.046;10.760;2022-07-06T05:38:07;1.60;;;1.60;;
63018;SDS011;49105;46.046;10.760;2022-07-06T05:40:33;1.40;;;1.40;;
63018;SDS011;49105;46.046;10.760;2022-07-06T05:42:58;1.52;;;1.52;;
63018;SDS011;49105;46.046;10.760;2022-07-06T05:45:24;1.60;;;1.60;;
63018;SDS011;49105;46.046;10.760;2022-07-06T05:47:49;1.30;;;1.30;;
63018;SDS011;49105;46.046;10.760;2022-07-06T05:50:33;1.42;;;1.42;;
63018;SDS011;49105;46.046;10.760;2022-07-06T05:52:59;1.40;;;1.40;;
63018;SDS011;49105;46.046;10.760;2022-07-06T05:55:26;1.30;;;1.30;;
63018;SDS011;49105;46.046;10.760;2022-07-06T05:57:52;1.30;;;1.30;;
63018;SDS011;49105;46.046;10.760;2022-07-06T06:00:19;1.35;;;1.35;;
63018;SDS011;49105;46.046;10.760;2022-07-06T06:02:45;1.50;;;1.50;;
63018;SDS011;49105;46.046;10.760;2022-07-06T06:05:11;1.15;;;1.15;;
63018;SDS011;49105;46.046;10.760;2022-07-06T06:07:39;1.40;;;1.40;;
63018;SDS011;49105;46.046;10.760;2022-07-06T06:10:09;1.30;;;1.30;;
63018;SDS011;49105;46.046;10.760;2022-07-06T06:12:37;1.17;;;1.17;;
63018;SDS011;49105;46.046;10.760;2022-07-06T06:15:03;1.33;;;1.33;;
63018;SDS011;49105;46.046;10.760;2022-07-06T06:17:29;1.40;;;1.40;;
63018;SDS011;49105;46.046;10.760;2022-07-06T06:19:55;1.55;;;1.45;;
63018;SDS011;49105;46.046;10.760;2022-07-06T06:22:22;1.40;;;1.40;;
63018;SDS011;49105;46.046;10.760;2022-07-06T06:24:47;1.20;;;1.20;;
63018;SDS011;49105;46.046;10.760;2022-07-06T06:27:13;1.13;;;1.13;;
63018;SDS011;49105;46.046;10.760;2022-07-06T06:29:39;1.30;;;1.30;;
63018;SDS011;49105;46.046;10.760;2022-07-06T06:32:06;1.30;;;1.30;;
63018;SDS011;49105;46.046;10.760;2022-07-06T06:34:32;1.30;;;1.30;;
63018;SDS011;49105;46.046;10.760;2022-07-06T06:36:57;1.30;;;1.30;;
63018;SDS011;49105;46.046;10.760;2022-07-06T06:39:23;1.42;;;1.40;;
63018;SDS011;49105;46.046;10.760;2022-07-06T06:41:48;1.30;;;1.30;;
63018;SDS011;49105;46.046;10.760;2022-07-06T06:44:14;1.42;;;1.42;;
63018;SDS011;49105;46.046;10.760;2022-07-06T06:46:39;1.30;;;1.30;;
63018;SDS011;49105;46.046;10.760;2022-07-06T06:49:05;1.30;;;1.30;;
63018;SDS011;49105;46.046;10.760;2022-07-06T06:51:31;1.30;;;1.30;;
63018;SDS011;49105;46.046;10.760;2022-07-06T06:53:57;1.30;;;1.30;;
63018;SDS011;49105;46.046;10.760;2022-07-06T06:56:23;1.20;;;1.20;;
63018;SDS011;49105;46.046;10.760;2022-07-06T06:58:48;1.10;;;1.10;;
63018;SDS011;49105;46.046;10.760;2022-07-06T07:01:14;1.35;;;1.35;;
63018;SDS011;49105;46.046;10.760;2022-07-06T07:03:39;1.20;;;1.20;;
63018;SDS011;49105;46.046;10.760;2022-07-06T07:06:05;1.10;;;1.10;;
63018;SDS011;49105;46.046;10.760;2022-07-06T07:08:30;1.10;;;1.10;;
63018;SDS011;49105;46.046;10.760;2022-07-06T07:10:56;1.42;;;1.33;;
63018;SDS011;49105;46.046;10.760;2022-07-06T07:13:22;1.05;;;1.05;;
63018;SDS011;49105;46.046;10.760;2022-07-06T07:15:47;1.20;;;1.20;;
63018;SDS011;49105;46.046;10.760;2022-07-06T07:18:14;1.20;;;1.20;;
63018;SDS011;49105;46.046;10.760;2022-07-06T07:20:40;1.20;;;1.20;;
63018;SDS011;49105;46.046;10.760;2022-07-06T07:23:05;1.70;;;1.60;;
63018;SDS011;49105;46.046;10.760;2022-07-06T07:25:30;1.10;;;1.10;;
63018;SDS011;49105;46.046;10.760;2022-07-06T07:27:56;1.20;;;1.20;;
63018;SDS011;49105;46.046;10.760;2022-07-06T07:30:22;1.20;;;1.20;;
63018;SDS011;49105;46.046;10.760;2022-07-06T07:32:47;1.23;;;1.23;;
63018;SDS011;49105;46.046;10.760;2022-07-06T07:35:13;1.30;;;1.30;;
63018;SDS011;49105;46.046;10.760;2022-07-06T07:37:38;1.30;;;1.30;;
63018;SDS011;49105;46.046;10.760;2022-07-06T07:40:04;1.20;;;1.20;;
63018;SDS011;49105;46.046;10.760;2022-07-06T07:42:31;1.17;;;1.17;;
63018;SDS011;49105;46.046;10.760;2022-07-06T07:44:56;1.20;;;1.20;;
63018;SDS011;49105;46.046;10.760;2022-07-06T07:47:22;1.20;;;1.20;;
63018;SDS011;49105;46.046;10.760;2022-07-06T07:49:47;1.20;;;1.20;;
63018;SDS011;49105;46.046;10.760;2022-07-06T07:52:13;2.15;;;1.40;;
63018;SDS011;49105;46.046;10.760;2022-07-06T07:54:38;1.92;;;1.80;;
63018;SDS011;49105;46.046;10.760;2022-07-06T07:57:04;1.45;;;1.40;;
63018;SDS011;49105;46.046;10.760;2022-07-06T07:59:30;1.27;;;1.27;;
63018;SDS011;49105;46.046;10.760;2022-07-06T08:01:55;1.20;;;1.20;;
63018;SDS011;49105;46.046;10.760;2022-07-06T08:04:20;1.55;;;1.55;;
63018;SDS011;49105;46.046;10.760;2022-07-06T08:06:46;1.25;;;1.25;;
63018;SDS011;49105;46.046;10.760;2022-07-06T08:09:12;1.20;;;1.20;;
63018;SDS011;49105;46.046;10.760;2022-07-06T08:11:37;1.40;;;1.40;;
63018;SDS011;49105;46.046;10.760;2022-07-06T08:14:03;1.20;;;1.20;;
63018;SDS011;49105;46.046;10.760;2022-07-06T08:16:29;1.38;;;1.38;;
63018;SDS011;49105;46.046;10.760;2022-07-06T08:18:55;1.40;;;1.40;;
63018;SDS011;49105;46.046;10.760;2022-07-06T08:21:21;1.20;;;1.20;;
63018;SDS011;49105;46.046;10.760;2022-07-06T08:23:46;1.35;;;1.35;;
63018;SDS011;49105;46.046;10.760;2022-07-06T08:26:12;1.27;;;1.27;;
63018;SDS011;49105;46.046;10.760;2022-07-06T08:28:37;1.17;;;1.17;;
63018;SDS011;49105;46.046;10.760;2022-07-06T08:31:03;1.33;;;1.33;;
63018;SDS011;49105;46.046;10.760;2022-07-06T08:33:29;1.35;;;1.35;;
63018;SDS011;49105;46.046;10.760;2022-07-06T08:35:54;1.30;;;1.30;;
63018;SDS011;49105;46.046;10.760;2022-07-06T08:38:20;1.35;;;1.35;;
63018;SDS011;49105;46.046;10.760;2022-07-06T08:40:46;1.52;;;1.52;;
63018;SDS011;49105;46.046;10.760;2022-07-06T08:43:14;1.27;;;1.27;;
63018;SDS011;49105;46.046;10.760;2022-07-06T08:45:39;1.40;;;1.40;;
63018;SDS011;49105;46.046;10.760;2022-07-06T08:48:08;1.40;;;1.40;;
63018;SDS011;49105;46.046;10.760;2022-07-06T08:50:35;1.20;;;1.20;;
63018;SDS011;49105;46.046;10.760;2022-07-06T08:53:01;1.30;;;1.30;;
63018;SDS011;49105;46.046;10.760;2022-07-06T08:55:27;1.20;;;1.20;;
63018;SDS011;49105;46.046;10.760;2022-07-06T08:57:54;1.20;;;1.20;;
63018;SDS011;49105;46.046;10.760;2022-07-06T09:00:20;1.30;;;1.30;;
63018;SDS011;49105;46.046;10.760;2022-07-06T09:02:47;1.25;;;1.25;;
63018;SDS011;49105;46.046;10.760;2022-07-06T09:05:15;1.10;;;1.10;;
63018;SDS011;49105;46.046;10.760;2022-07-06T09:07:42;1.40;;;1.40;;
63018;SDS011;49105;46.046;10.760;2022-07-06T09:10:09;1.40;;;1.40;;
63018;SDS011;49105;46.046;10.760;2022-07-06T09:12:35;1.20;;;1.20;;
63018;SDS011;49105;46.046;10.760;2022-07-06T09:15:01;1.20;;;1.20;;
63018;SDS011;49105;46.046;10.760;2022-07-06T09:17:27;1.08;;;1.08;;
63018;SDS011;49105;46.046;10.760;2022-07-06T09:19:54;1.20;;;1.20;;
63018;SDS011;49105;46.046;10.760;2022-07-06T09:24:52;1.00;;;1.00;;
63018;SDS011;49105;46.046;10.760;2022-07-06T09:27:18;1.20;;;1.20;;
63018;SDS011;49105;46.046;10.760;2022-07-06T09:29:43;1.27;;;1.27;;
63018;SDS011;49105;46.046;10.760;2022-07-06T09:32:10;1.10;;;1.10;;
63018;SDS011;49105;46.046;10.760;2022-07-06T09:34:42;1.00;;;1.00;;
63018;SDS011;49105;46.046;10.760;2022-07-06T09:37:09;1.10;;;1.10;;
63018;SDS011;49105;46.046;10.760;2022-07-06T09:39:35;1.10;;;1.10;;
63018;SDS011;49105;46.046;10.760;2022-07-06T09:42:01;1.00;;;1.00;;
63018;SDS011;49105;46.046;10.760;2022-07-06T09:46:56;1.10;;;1.10;;
63018;SDS011;49105;46.046;10.760;2022-07-06T09:49:24;1.20;;;1.20;;
63018;SDS011;49105;46.046;10.760;2022-07-06T09:51:50;1.20;;;1.20;;
63018;SDS011;49105;46.046;10.760;2022-07-06T09:54:17;1.20;;;1.20;;
63018;SDS011;49105;46.046;10.760;2022-07-06T09:56:45;1.60;;;1.60;;
63018;SDS011;49105;46.046;10.760;2022-07-06T09:59:18;1.30;;;1.30;;
63018;SDS011;49105;46.046;10.760;2022-07-06T10:01:46;1.38;;;1.38;;
63018;SDS011;49105;46.046;10.760;2022-07-06T10:04:13;1.55;;;1.55;;
63018;SDS011;49105;46.046;10.760;2022-07-06T10:06:39;1.08;;;1.08;;
63018;SDS011;49105;46.046;10.760;2022-07-06T10:09:06;1.25;;;1.25;;
63018;SDS011;49105;46.046;10.760;2022-07-06T10:11:54;1.30;;;1.30;;
63018;SDS011;49105;46.046;10.760;2022-07-06T10:14:26;1.30;;;1.30;;
63018;SDS011;49105;46.046;10.760;2022-07-06T10:16:54;1.33;;;1.33;;
63018;SDS011;49105;46.046;10.760;2022-07-06T10:19:21;1.55;;;1.55;;
63018;SDS011;49105;46.046;10.760;2022-07-06T10:21:47;1.33;;;1.33;;
63018;SDS011;49105;46.046;10.760;2022-07-06T10:24:12;1.33;;;1.33;;
63018;SDS011;49105;46.046;10.760;2022-07-06T10:26:39;1.30;;;1.30;;
63018;SDS011;49105;46.046;10.760;2022-07-06T10:29:06;1.20;;;1.20;;
63018;SDS011;49105;46.046;10.760;2022-07-06T10:31:32;1.20;;;1.20;;
63018;SDS011;49105;46.046;10.760;2022-07-06T10:34:00;1.20;;;1.20;;
63018;SDS011;49105;46.046;10.760;2022-07-06T10:36:27;1.10;;;1.10;;
63018;SDS011;49105;46.046;10.760;2022-07-06T10:38:53;1.10;;;1.10;;
63018;SDS011;49105;46.046;10.760;2022-07-06T10:41:29;1.10;;;1.10;;
63018;SDS011;49105;46.046;10.760;2022-07-06T10:43:56;1.10;;;1.10;;
63018;SDS011;49105;46.046;10.760;2022-07-06T10:46:23;1.10;;;1.10;;
63018;SDS011;49105;46.046;10.760;2022-07-06T10:48:53;1.10;;;1.10;;
63018;SDS011;49105;46.046;10.760;2022-07-06T10:51:28;1.27;;;1.27;;
63018;SDS011;49105;46.046;10.760;2022-07-06T10:53:59;1.15;;;1.15;;
63018;SDS011;49105;46.046;10.760;2022-07-06T10:56:32;1.15;;;1.15;;
63018;SDS011;49105;46.046;10.760;2022-07-06T10:59:02;1.30;;;1.30;;
63018;SDS011;49105;46.046;10.760;2022-07-06T11:01:34;1.10;;;1.10;;
63018;SDS011;49105;46.046;10.760;2022-07-06T11:06:26;1.10;;;1.10;;
63018;SDS011;49105;46.046;10.760;2022-07-06T11:16:27;1.10;;;1.10;;
63018;SDS011;49105;46.046;10.760;2022-07-06T11:24:20;1.10;;;1.10;;
63018;SDS011;49105;46.046;10.760;2022-07-06T11:26:48;1.20;;;1.20;;
63018;SDS011;49105;46.046;10.760;2022-07-06T11:29:16;1.10;;;1.10;;
63018;SDS011;49105;46.046;10.760;2022-07-06T11:31:43;1.10;;;1.10;;
63018;SDS011;49105;46.046;10.760;2022-07-06T11:34:11;1.17;;;1.17;;
63018;SDS011;49105;46.046;10.760;2022-07-06T11:36:39;1.10;;;1.10;;
63018;SDS011;49105;46.046;10.760;2022-07-06T11:39:06;1.13;;;1.13;;
63018;SDS011;49105;46.046;10.760;2022-07-06T11:41:31;1.20;;;1.20;;
63018;SDS011;49105;46.046;10.760;2022-07-06T11:43:57;1.15;;;1.15;;
63018;SDS011;49105;46.046;10.760;2022-07-06T11:48:55;1.10;;;1.10;;
63018;SDS011;49105;46.046;10.760;2022-07-06T11:51:24;1.10;;;1.10;;
63018;SDS011;49105;46.046;10.760;2022-07-06T11:53:52;1.08;;;1.08;;
63018;SDS011;49105;46.046;10.760;2022-07-06T11:56:19;1.10;;;1.10;;
63018;SDS011;49105;46.046;10.760;2022-07-06T11:58:48;1.20;;;1.20;;
63018;SDS011;49105;46.046;10.760;2022-07-06T12:01:15;1.40;;;1.40;;
63018;SDS011;49105;46.046;10.760;2022-07-06T12:03:41;1.30;;;1.30;;
63018;SDS011;49105;46.046;10.760;2022-07-06T12:06:15;1.20;;;1.20;;
63018;SDS011;49105;46.046;10.760;2022-07-06T12:08:47;1.30;;;1.30;;
63018;SDS011;49105;46.046;10.760;2022-07-06T12:13:48;0.98;;;0.98;;
63018;SDS011;49105;46.046;10.760;2022-07-06T12:16:14;1.20;;;1.20;;
63018;SDS011;49105;46.046;10.760;2022-07-06T12:18:41;1.10;;;1.10;;
63018;SDS011;49105;46.046;10.760;2022-07-06T12:21:15;2.03;;;1.20;;
63018;SDS011;49105;46.046;10.760;2022-07-06T12:23:44;1.55;;;1.55;;
63018;SDS011;49105;46.046;10.760;2022-07-06T12:26:11;1.25;;;1.25;;
63018;SDS011;49105;46.046;10.760;2022-07-06T12:28:37;1.13;;;1.13;;
63018;SDS011;49105;46.046;10.760;2022-07-06T12:31:03;1.60;;;1.60;;
63018;SDS011;49105;46.046;10.760;2022-07-06T12:33:29;1.33;;;1.30;;
63018;SDS011;49105;46.046;10.760;2022-07-06T12:35:55;1.00;;;1.00;;
63018;SDS011;49105;46.046;10.760;2022-07-06T12:38:22;1.00;;;1.00;;
63018;SDS011;49105;46.046;10.760;2022-07-06T12:40:51;1.27;;;1.27;;
63018;SDS011;49105;46.046;10.760;2022-07-06T12:49:20;1.15;;;1.15;;
63018;SDS011;49105;46.046;10.760;2022-07-06T12:54:24;1.10;;;1.10;;
63018;SDS011;49105;46.046;10.760;2022-07-06T13:02:07;1.40;;;1.40;;
63018;SDS011;49105;46.046;10.760;2022-07-06T13:04:41;1.20;;;1.20;;
63018;SDS011;49105;46.046;10.760;2022-07-06T13:07:06;1.25;;;1.25;;
63018;SDS011;49105;46.046;10.760;2022-07-06T13:09:43;1.40;;;1.40;;
63018;SDS011;49105;46.046;10.760;2022-07-06T13:12:09;1.45;;;1.45;;
63018;SDS011;49105;46.046;10.760;2022-07-06T13:14:46;1.20;;;1.20;;
63018;SDS011;49105;46.046;10.760;2022-07-06T13:17:12;1.15;;;1.15;;
63018;SDS011;49105;46.046;10.760;2022-07-06T13:19:38;1.50;;;1.40;;
63018;SDS011;49105;46.046;10.760;2022-07-06T13:22:04;1.20;;;1.20;;
63018;SDS011;49105;46.046;10.760;2022-07-06T13:24:29;1.20;;;1.20;;
63018;SDS011;49105;46.046;10.760;2022-07-06T13:26:55;1.10;;;1.10;;
63018;SDS011;49105;46.046;10.760;2022-07-06T13:29:22;1.20;;;1.20;;
63018;SDS011;49105;46.046;10.760;2022-07-06T13:31:47;1.10;;;1.10;;
63018;SDS011;49105;46.046;10.760;2022-07-06T13:34:13;1.02;;;1.02;;
63018;SDS011;49105;46.046;10.760;2022-07-06T13:36:39;1.00;;;1.00;;
63018;SDS011;49105;46.046;10.760;2022-07-06T13:39:05;1.00;;;1.00;;
63018;SDS011;49105;46.046;10.760;2022-07-06T13:41:31;1.20;;;1.20;;
63018;SDS011;49105;46.046;10.760;2022-07-06T13:43:57;1.27;;;1.27;;
63018;SDS011;49105;46.046;10.760;2022-07-06T13:46:25;1.58;;;1.50;;
63018;SDS011;49105;46.046;10.760;2022-07-06T13:48:52;1.30;;;1.30;;
63018;SDS011;49105;46.046;10.760;2022-07-06T13:51:17;1.30;;;1.30;;
63018;SDS011;49105;46.046;10.760;2022-07-06T13:53:44;4.28;;;2.05;;
63018;SDS011;49105;46.046;10.760;2022-07-06T13:56:10;1.30;;;1.30;;
63018;SDS011;49105;46.046;10.760;2022-07-06T13:58:36;1.13;;;1.13;;
63018;SDS011;49105;46.046;10.760;2022-07-06T14:01:01;1.55;;;1.52;;
63018;SDS011;49105;46.046;10.760;2022-07-06T14:03:28;1.20;;;1.20;;
63018;SDS011;49105;46.046;10.760;2022-07-06T14:05:57;1.45;;;1.45;;
63018;SDS011;49105;46.046;10.760;2022-07-06T14:08:29;1.10;;;1.10;;
63018;SDS011;49105;46.046;10.760;2022-07-06T14:10:55;1.10;;;1.10;;
63018;SDS011;49105;46.046;10.760;2022-07-06T14:13:21;1.08;;;1.08;;
63018;SDS011;49105;46.046;10.760;2022-07-06T14:15:47;1.20;;;1.20;;
63018;SDS011;49105;46.046;10.760;2022-07-06T14:18:12;1.15;;;1.15;;
63018;SDS011;49105;46.046;10.760;2022-07-06T14:20:39;1.10;;;1.10;;
63018;SDS011;49105;46.046;10.760;2022-07-06T14:23:05;1.20;;;1.20;;
63018;SDS011;49105;46.046;10.760;2022-07-06T14:25:31;1.10;;;1.10;;
63018;SDS011;49105;46.046;10.760;2022-07-06T14:27:57;1.20;;;1.20;;
63018;SDS011;49105;46.046;10.760;2022-07-06T14:30:22;0.98;;;0.98;;
63018;SDS011;49105;46.046;10.760;2022-07-06T14:32:48;0.90;;;0.90;;
63018;SDS011;49105;46.046;10.760;2022-07-06T14:35:14;1.30;;;1.30;;
63018;SDS011;49105;46.046;10.760;2022-07-06T14:37:39;0.90;;;0.90;;
63018;SDS011;49105;46.046;10.760;2022-07-06T14:40:05;1.00;;;1.00;;
63018;SDS011;49105;46.046;10.760;2022-07-06T14:42:31;1.10;;;1.10;;
63018;SDS011;49105;46.046;10.760;2022-07-06T14:44:56;1.20;;;1.20;;
63018;SDS011;49105;46.046;10.760;2022-07-06T14:47:22;1.10;;;1.10;;
63018;SDS011;49105;46.046;10.760;2022-07-06T14:49:47;1.20;;;1.20;;
63018;SDS011;49105;46.046;10.760;2022-07-06T14:52:13;1.05;;;1.05;;
63018;SDS011;49105;46.046;10.760;2022-07-06T14:54:38;1.10;;;1.10;;
63018;SDS011;49105;46.046;10.760;2022-07-06T14:57:04;1.00;;;1.00;;
63018;SDS011;49105;46.046;10.760;2022-07-06T14:59:33;1.20;;;1.20;;
63018;SDS011;49105;46.046;10.760;2022-07-06T15:01:58;1.20;;;1.20;;
63018;SDS011;49105;46.046;10.760;2022-07-06T15:04:24;1.15;;;1.15;;
63018;SDS011;49105;46.046;10.760;2022-07-06T15:06:50;0.93;;;0.93;;
63018;SDS011;49105;46.046;10.760;2022-07-06T15:09:15;0.90;;;0.90;;
63018;SDS011;49105;46.046;10.760;2022-07-06T15:11:41;0.80;;;0.80;;
63018;SDS011;49105;46.046;10.760;2022-07-06T15:14:06;1.10;;;1.10;;